Berkley, Michigan
Current Conditions -  °F | °C
As of 1:54 PM on Monday 20 Oct 2014 (Local Time) from KVLL Reporting Station
Overcast Overcast  
Wind Chill: 13°   Ceiling: 2000
Heat Index: 13°   Visibility: 10mi
Dew Point:   Wind: 6mph
Humidity: 70%   Direction: 230°SW
Pressure: 29.81"   Gusts: NA
Location:  42.5°N, 83.18°W
Report Text: KVLL 201754Z AUTO 23005KT 10SM BKN020 BKN050 OVC070 13/08 A2981 RMK AO2 T01310078
Loading
Personal Weather Stations






























Interactive Weather Map
Tropical Storm Tracking
New forecast layout! Learn more

10-Day Weather Forecast

Advertisements
Track Severe Weather on mobile